sensor_id;sensor_type;location;lat;lon;timestamp;P1;durP1;ratioP1;P2;durP2;ratioP2
56399;SDS011;42298;53.638;9.876;2023-02-18T00:00:04;26.97;;;5.90;;
56399;SDS011;42298;53.638;9.876;2023-02-18T00:02:32;26.90;;;5.70;;
56399;SDS011;42298;53.638;9.876;2023-02-18T00:04:59;23.83;;;4.57;;
56399;SDS011;42298;53.638;9.876;2023-02-18T00:07:24;27.00;;;5.03;;
56399;SDS011;42298;53.638;9.876;2023-02-18T00:09:50;20.70;;;4.83;;
56399;SDS011;42298;53.638;9.876;2023-02-18T00:12:18;26.93;;;5.43;;
56399;SDS011;42298;53.638;9.876;2023-02-18T00:14:43;26.20;;;5.20;;
56399;SDS011;42298;53.638;9.876;2023-02-18T00:17:08;26.20;;;5.50;;
56399;SDS011;42298;53.638;9.876;2023-02-18T00:19:34;24.13;;;4.60;;
56399;SDS011;42298;53.638;9.876;2023-02-18T00:22:00;26.47;;;5.03;;
56399;SDS011;42298;53.638;9.876;2023-02-18T00:24:27;25.27;;;5.17;;
56399;SDS011;42298;53.638;9.876;2023-02-18T00:26:52;30.57;;;5.43;;
56399;SDS011;42298;53.638;9.876;2023-02-18T00:29:18;20.23;;;4.90;;
56399;SDS011;42298;53.638;9.876;2023-02-18T00:31:44;27.67;;;6.37;;
56399;SDS011;42298;53.638;9.876;2023-02-18T00:34:10;35.63;;;6.37;;
56399;SDS011;42298;53.638;9.876;2023-02-18T00:36:37;21.67;;;5.57;;
56399;SDS011;42298;53.638;9.876;2023-02-18T00:39:04;21.17;;;4.73;;
56399;SDS011;42298;53.638;9.876;2023-02-18T00:41:33;22.23;;;5.20;;
56399;SDS011;42298;53.638;9.876;2023-02-18T00:43:59;25.70;;;5.03;;
56399;SDS011;42298;53.638;9.876;2023-02-18T00:46:28;21.70;;;4.73;;
56399;SDS011;42298;53.638;9.876;2023-02-18T00:48:54;26.10;;;5.20;;
56399;SDS011;42298;53.638;9.876;2023-02-18T00:51:20;29.97;;;6.50;;
56399;SDS011;42298;53.638;9.876;2023-02-18T00:53:46;25.43;;;5.23;;
56399;SDS011;42298;53.638;9.876;2023-02-18T00:56:11;22.80;;;4.60;;
56399;SDS011;42298;53.638;9.876;2023-02-18T00:58:36;24.47;;;6.53;;
56399;SDS011;42298;53.638;9.876;2023-02-18T01:01:03;29.17;;;5.77;;
56399;SDS011;42298;53.638;9.876;2023-02-18T01:03:29;26.87;;;5.57;;
56399;SDS011;42298;53.638;9.876;2023-02-18T01:05:55;24.73;;;4.37;;
56399;SDS011;42298;53.638;9.876;2023-02-18T01:08:20;24.57;;;5.37;;
56399;SDS011;42298;53.638;9.876;2023-02-18T01:10:47;31.00;;;5.70;;
56399;SDS011;42298;53.638;9.876;2023-02-18T01:13:13;25.67;;;4.43;;
56399;SDS011;42298;53.638;9.876;2023-02-18T01:15:40;21.37;;;4.60;;
56399;SDS011;42298;53.638;9.876;2023-02-18T01:18:06;25.00;;;5.27;;
56399;SDS011;42298;53.638;9.876;2023-02-18T01:20:33;29.20;;;5.90;;
56399;SDS011;42298;53.638;9.876;2023-02-18T01:23:02;31.73;;;5.80;;
56399;SDS011;42298;53.638;9.876;2023-02-18T01:25:28;27.10;;;5.07;;
56399;SDS011;42298;53.638;9.876;2023-02-18T01:27:53;27.00;;;5.53;;
56399;SDS011;42298;53.638;9.876;2023-02-18T01:30:19;21.83;;;5.17;;
56399;SDS011;42298;53.638;9.876;2023-02-18T01:32:46;29.50;;;5.37;;
56399;SDS011;42298;53.638;9.876;2023-02-18T01:35:13;24.30;;;5.77;;
56399;SDS011;42298;53.638;9.876;2023-02-18T01:37:40;27.20;;;5.17;;
56399;SDS011;42298;53.638;9.876;2023-02-18T01:40:06;33.07;;;6.27;;
56399;SDS011;42298;53.638;9.876;2023-02-18T01:42:35;20.27;;;5.13;;
56399;SDS011;42298;53.638;9.876;2023-02-18T01:48:02;25.30;;;4.50;;
56399;SDS011;42298;53.638;9.876;2023-02-18T01:50:34;36.27;;;6.30;;
56399;SDS011;42298;53.638;9.876;2023-02-18T01:53:03;21.47;;;4.37;;
56399;SDS011;42298;53.638;9.876;2023-02-18T01:55:29;24.57;;;5.60;;
56399;SDS011;42298;53.638;9.876;2023-02-18T01:57:55;25.97;;;5.43;;
56399;SDS011;42298;53.638;9.876;2023-02-18T02:00:21;28.00;;;5.17;;
56399;SDS011;42298;53.638;9.876;2023-02-18T02:02:48;23.90;;;5.43;;
56399;SDS011;42298;53.638;9.876;2023-02-18T02:05:16;25.07;;;5.93;;
56399;SDS011;42298;53.638;9.876;2023-02-18T02:07:43;25.03;;;5.57;;
56399;SDS011;42298;53.638;9.876;2023-02-18T02:10:10;29.10;;;5.60;;
56399;SDS011;42298;53.638;9.876;2023-02-18T02:15:33;21.60;;;5.23;;
56399;SDS011;42298;53.638;9.876;2023-02-18T02:18:04;20.60;;;5.00;;
56399;SDS011;42298;53.638;9.876;2023-02-18T02:35:02;20.90;;;4.60;;
56399;SDS011;42298;53.638;9.876;2023-02-18T02:37:37;20.90;;;5.03;;
56399;SDS011;42298;53.638;9.876;2023-02-18T02:40:23;23.40;;;4.27;;
56399;SDS011;42298;53.638;9.876;2023-02-18T02:51:28;20.77;;;4.60;;
56399;SDS011;42298;53.638;9.876;2023-02-18T02:56:43;23.23;;;4.50;;
56399;SDS011;42298;53.638;9.876;2023-02-18T02:59:16;21.43;;;4.27;;
56399;SDS011;42298;53.638;9.876;2023-02-18T03:04:43;20.87;;;4.03;;
56399;SDS011;42298;53.638;9.876;2023-02-18T03:10:02;13.37;;;3.20;;
56399;SDS011;42298;53.638;9.876;2023-02-18T03:13:00;22.93;;;5.13;;
56399;SDS011;42298;53.638;9.876;2023-02-18T03:15:49;18.43;;;4.60;;
56399;SDS011;42298;53.638;9.876;2023-02-18T03:18:23;23.20;;;4.27;;
56399;SDS011;42298;53.638;9.876;2023-02-18T03:20:59;19.80;;;3.80;;
56399;SDS011;42298;53.638;9.876;2023-02-18T03:24:04;20.80;;;4.50;;
56399;SDS011;42298;53.638;9.876;2023-02-18T03:26:25;20.57;;;3.70;;
56399;SDS011;42298;53.638;9.876;2023-02-18T03:28:54;22.53;;;4.17;;
56399;SDS011;42298;53.638;9.876;2023-02-18T03:31:24;21.20;;;4.30;;
56399;SDS011;42298;53.638;9.876;2023-02-18T03:33:54;20.73;;;4.20;;
56399;SDS011;42298;53.638;9.876;2023-02-18T03:36:23;19.03;;;3.87;;
56399;SDS011;42298;53.638;9.876;2023-02-18T03:38:53;22.73;;;5.20;;
56399;SDS011;42298;53.638;9.876;2023-02-18T03:41:22;16.00;;;3.90;;
56399;SDS011;42298;53.638;9.876;2023-02-18T03:43:49;16.63;;;3.53;;
56399;SDS011;42298;53.638;9.876;2023-02-18T03:46:15;19.40;;;3.93;;
56399;SDS011;42298;53.638;9.876;2023-02-18T03:48:41;18.27;;;4.00;;
56399;SDS011;42298;53.638;9.876;2023-02-18T03:51:06;19.27;;;4.67;;
56399;SDS011;42298;53.638;9.876;2023-02-18T03:53:32;22.90;;;3.97;;
56399;SDS011;42298;53.638;9.876;2023-02-18T03:55:57;19.03;;;4.13;;
56399;SDS011;42298;53.638;9.876;2023-02-18T03:58:22;22.53;;;4.07;;
56399;SDS011;42298;53.638;9.876;2023-02-18T04:00:47;15.73;;;4.03;;
56399;SDS011;42298;53.638;9.876;2023-02-18T04:03:15;20.20;;;3.23;;
56399;SDS011;42298;53.638;9.876;2023-02-18T04:05:40;12.33;;;3.10;;
56399;SDS011;42298;53.638;9.876;2023-02-18T04:08:05;14.80;;;2.80;;
56399;SDS011;42298;53.638;9.876;2023-02-18T04:10:31;19.67;;;3.43;;
56399;SDS011;42298;53.638;9.876;2023-02-18T04:12:56;19.27;;;3.50;;
56399;SDS011;42298;53.638;9.876;2023-02-18T04:15:21;15.17;;;3.23;;
56399;SDS011;42298;53.638;9.876;2023-02-18T04:17:46;20.73;;;3.80;;
56399;SDS011;42298;53.638;9.876;2023-02-18T04:20:12;13.70;;;3.10;;
56399;SDS011;42298;53.638;9.876;2023-02-18T04:22:37;15.47;;;3.50;;
56399;SDS011;42298;53.638;9.876;2023-02-18T04:25:03;12.30;;;2.97;;
56399;SDS011;42298;53.638;9.876;2023-02-18T04:27:28;15.37;;;3.40;;
56399;SDS011;42298;53.638;9.876;2023-02-18T04:29:53;16.17;;;3.43;;
56399;SDS011;42298;53.638;9.876;2023-02-18T04:32:19;16.20;;;3.83;;
56399;SDS011;42298;53.638;9.876;2023-02-18T04:34:44;15.67;;;3.17;;
56399;SDS011;42298;53.638;9.876;2023-02-18T04:37:09;12.27;;;3.10;;
56399;SDS011;42298;53.638;9.876;2023-02-18T04:39:34;16.43;;;3.23;;
56399;SDS011;42298;53.638;9.876;2023-02-18T04:42:01;12.53;;;2.93;;
56399;SDS011;42298;53.638;9.876;2023-02-18T04:44:26;15.37;;;2.47;;
56399;SDS011;42298;53.638;9.876;2023-02-18T04:46:51;14.57;;;3.30;;
56399;SDS011;42298;53.638;9.876;2023-02-18T04:49:17;15.93;;;2.93;;
56399;SDS011;42298;53.638;9.876;2023-02-18T04:51:42;13.43;;;3.20;;
56399;SDS011;42298;53.638;9.876;2023-02-18T04:54:07;16.63;;;3.63;;
56399;SDS011;42298;53.638;9.876;2023-02-18T04:56:33;15.23;;;2.87;;
56399;SDS011;42298;53.638;9.876;2023-02-18T04:58:59;14.13;;;2.97;;
56399;SDS011;42298;53.638;9.876;2023-02-18T05:01:24;17.53;;;3.60;;
56399;SDS011;42298;53.638;9.876;2023-02-18T05:03:49;15.43;;;3.13;;
56399;SDS011;42298;53.638;9.876;2023-02-18T05:06:15;14.07;;;3.00;;
56399;SDS011;42298;53.638;9.876;2023-02-18T05:08:40;13.13;;;3.37;;
56399;SDS011;42298;53.638;9.876;2023-02-18T05:11:06;15.77;;;3.13;;
56399;SDS011;42298;53.638;9.876;2023-02-18T05:13:32;16.93;;;3.70;;
56399;SDS011;42298;53.638;9.876;2023-02-18T05:15:58;10.93;;;3.30;;
56399;SDS011;42298;53.638;9.876;2023-02-18T05:18:23;12.67;;;3.13;;
56399;SDS011;42298;53.638;9.876;2023-02-18T05:20:49;14.23;;;3.13;;
56399;SDS011;42298;53.638;9.876;2023-02-18T05:23:14;14.40;;;3.30;;
56399;SDS011;42298;53.638;9.876;2023-02-18T05:25:39;19.37;;;3.30;;
56399;SDS011;42298;53.638;9.876;2023-02-18T05:28:05;13.47;;;3.10;;
56399;SDS011;42298;53.638;9.876;2023-02-18T05:30:30;14.83;;;3.80;;
56399;SDS011;42298;53.638;9.876;2023-02-18T05:32:55;14.97;;;3.57;;
56399;SDS011;42298;53.638;9.876;2023-02-18T05:35:21;14.63;;;3.73;;
56399;SDS011;42298;53.638;9.876;2023-02-18T05:37:47;11.07;;;2.67;;
56399;SDS011;42298;53.638;9.876;2023-02-18T05:40:13;14.00;;;3.17;;
56399;SDS011;42298;53.638;9.876;2023-02-18T05:42:38;10.97;;;2.90;;
56399;SDS011;42298;53.638;9.876;2023-02-18T05:45:03;16.83;;;2.83;;
56399;SDS011;42298;53.638;9.876;2023-02-18T05:47:29;14.23;;;3.30;;
56399;SDS011;42298;53.638;9.876;2023-02-18T05:49:54;13.03;;;3.60;;
56399;SDS011;42298;53.638;9.876;2023-02-18T05:52:20;15.93;;;3.47;;
56399;SDS011;42298;53.638;9.876;2023-02-18T05:54:46;13.53;;;3.13;;
56399;SDS011;42298;53.638;9.876;2023-02-18T05:57:12;12.10;;;3.10;;
56399;SDS011;42298;53.638;9.876;2023-02-18T05:59:38;12.53;;;3.37;;
56399;SDS011;42298;53.638;9.876;2023-02-18T06:02:03;16.70;;;3.37;;
56399;SDS011;42298;53.638;9.876;2023-02-18T06:04:29;14.70;;;3.10;;
56399;SDS011;42298;53.638;9.876;2023-02-18T06:06:54;13.27;;;3.33;;
56399;SDS011;42298;53.638;9.876;2023-02-18T06:09:19;16.73;;;3.70;;
56399;SDS011;42298;53.638;9.876;2023-02-18T06:11:45;13.73;;;3.40;;
56399;SDS011;42298;53.638;9.876;2023-02-18T06:14:10;12.00;;;2.90;;
56399;SDS011;42298;53.638;9.876;2023-02-18T06:16:35;16.47;;;3.30;;
56399;SDS011;42298;53.638;9.876;2023-02-18T06:19:01;11.13;;;2.93;;
56399;SDS011;42298;53.638;9.876;2023-02-18T06:21:27;11.67;;;2.63;;
56399;SDS011;42298;53.638;9.876;2023-02-18T06:23:52;12.53;;;3.27;;
56399;SDS011;42298;53.638;9.876;2023-02-18T06:26:17;14.20;;;2.80;;
56399;SDS011;42298;53.638;9.876;2023-02-18T06:28:42;9.50;;;2.50;;
56399;SDS011;42298;53.638;9.876;2023-02-18T06:31:08;10.73;;;2.50;;
56399;SDS011;42298;53.638;9.876;2023-02-18T06:33:33;12.27;;;2.73;;
56399;SDS011;42298;53.638;9.876;2023-02-18T06:36:00;11.83;;;3.00;;
56399;SDS011;42298;53.638;9.876;2023-02-18T06:38:27;13.43;;;2.97;;
56399;SDS011;42298;53.638;9.876;2023-02-18T06:40:53;11.20;;;2.73;;
56399;SDS011;42298;53.638;9.876;2023-02-18T06:43:19;10.23;;;2.57;;
56399;SDS011;42298;53.638;9.876;2023-02-18T06:45:46;14.40;;;2.90;;
56399;SDS011;42298;53.638;9.876;2023-02-18T06:48:12;15.87;;;3.60;;
56399;SDS011;42298;53.638;9.876;2023-02-18T06:50:39;10.77;;;2.60;;
56399;SDS011;42298;53.638;9.876;2023-02-18T06:53:05;12.77;;;2.30;;
56399;SDS011;42298;53.638;9.876;2023-02-18T06:55:30;13.53;;;3.00;;
56399;SDS011;42298;53.638;9.876;2023-02-18T06:57:56;10.77;;;2.50;;
56399;SDS011;42298;53.638;9.876;2023-02-18T07:00:21;11.67;;;2.37;;
56399;SDS011;42298;53.638;9.876;2023-02-18T07:02:47;10.30;;;2.70;;
56399;SDS011;42298;53.638;9.876;2023-02-18T07:05:14;9.83;;;2.70;;
56399;SDS011;42298;53.638;9.876;2023-02-18T07:07:39;10.17;;;2.70;;
56399;SDS011;42298;53.638;9.876;2023-02-18T07:10:05;15.47;;;2.77;;
56399;SDS011;42298;53.638;9.876;2023-02-18T07:12:31;11.70;;;2.80;;
56399;SDS011;42298;53.638;9.876;2023-02-18T07:14:57;11.03;;;2.47;;
56399;SDS011;42298;53.638;9.876;2023-02-18T07:17:22;11.80;;;2.70;;
56399;SDS011;42298;53.638;9.876;2023-02-18T07:19:47;8.93;;;2.50;;
56399;SDS011;42298;53.638;9.876;2023-02-18T07:22:13;13.90;;;2.77;;
56399;SDS011;42298;53.638;9.876;2023-02-18T07:24:38;11.20;;;2.70;;
56399;SDS011;42298;53.638;9.876;2023-02-18T07:27:03;9.83;;;2.57;;
56399;SDS011;42298;53.638;9.876;2023-02-18T07:29:29;12.13;;;3.50;;
56399;SDS011;42298;53.638;9.876;2023-02-18T07:31:54;11.50;;;2.93;;
56399;SDS011;42298;53.638;9.876;2023-02-18T07:34:20;12.00;;;3.00;;
56399;SDS011;42298;53.638;9.876;2023-02-18T07:36:45;9.23;;;2.73;;
56399;SDS011;42298;53.638;9.876;2023-02-18T07:39:10;11.20;;;2.87;;
56399;SDS011;42298;53.638;9.876;2023-02-18T07:41:36;13.93;;;3.00;;
56399;SDS011;42298;53.638;9.876;2023-02-18T07:44:01;10.70;;;2.97;;
56399;SDS011;42298;53.638;9.876;2023-02-18T07:46:27;11.67;;;2.80;;
56399;SDS011;42298;53.638;9.876;2023-02-18T07:48:52;9.60;;;2.53;;
56399;SDS011;42298;53.638;9.876;2023-02-18T07:51:18;11.03;;;2.87;;
56399;SDS011;42298;53.638;9.876;2023-02-18T07:53:43;13.53;;;3.00;;
56399;SDS011;42298;53.638;9.876;2023-02-18T07:56:10;11.67;;;2.73;;
56399;SDS011;42298;53.638;9.876;2023-02-18T07:58:36;13.07;;;2.93;;
56399;SDS011;42298;53.638;9.876;2023-02-18T08:01:03;11.37;;;2.80;;
56399;SDS011;42298;53.638;9.876;2023-02-18T08:03:34;15.30;;;3.50;;
56399;SDS011;42298;53.638;9.876;2023-02-18T08:06:00;15.20;;;3.20;;
56399;SDS011;42298;53.638;9.876;2023-02-18T08:08:27;13.43;;;3.40;;
56399;SDS011;42298;53.638;9.876;2023-02-18T08:10:54;13.53;;;3.50;;
56399;SDS011;42298;53.638;9.876;2023-02-18T08:13:22;15.73;;;3.47;;
56399;SDS011;42298;53.638;9.876;2023-02-18T08:15:47;17.47;;;3.00;;
56399;SDS011;42298;53.638;9.876;2023-02-18T08:18:14;12.87;;;3.40;;
56399;SDS011;42298;53.638;9.876;2023-02-18T08:20:44;9.87;;;2.90;;
56399;SDS011;42298;53.638;9.876;2023-02-18T08:23:14;14.67;;;3.20;;
56399;SDS011;42298;53.638;9.876;2023-02-18T08:25:43;9.60;;;2.83;;
56399;SDS011;42298;53.638;9.876;2023-02-18T08:28:19;14.03;;;2.90;;
56399;SDS011;42298;53.638;9.876;2023-02-18T08:30:47;10.77;;;2.60;;
56399;SDS011;42298;53.638;9.876;2023-02-18T08:33:14;12.53;;;3.03;;
56399;SDS011;42298;53.638;9.876;2023-02-18T08:35:40;11.87;;;2.93;;
56399;SDS011;42298;53.638;9.876;2023-02-18T08:38:06;13.67;;;3.33;;
56399;SDS011;42298;53.638;9.876;2023-02-18T08:40:31;10.90;;;2.33;;
56399;SDS011;42298;53.638;9.876;2023-02-18T08:42:56;14.53;;;3.13;;
56399;SDS011;42298;53.638;9.876;2023-02-18T08:45:21;11.77;;;2.73;;
56399;SDS011;42298;53.638;9.876;2023-02-18T08:47:47;13.13;;;3.07;;
56399;SDS011;42298;53.638;9.876;2023-02-18T08:50:12;9.70;;;3.00;;
56399;SDS011;42298;53.638;9.876;2023-02-18T08:52:38;11.13;;;2.60;;
56399;SDS011;42298;53.638;9.876;2023-02-18T08:55:03;10.60;;;2.77;;
56399;SDS011;42298;53.638;9.876;2023-02-18T08:57:29;10.37;;;2.80;;
56399;SDS011;42298;53.638;9.876;2023-02-18T08:59:54;13.37;;;3.37;;
56399;SDS011;42298;53.638;9.876;2023-02-18T09:02:20;11.77;;;3.00;;
56399;SDS011;42298;53.638;9.876;2023-02-18T09:04:45;17.13;;;3.17;;
56399;SDS011;42298;53.638;9.876;2023-02-18T09:07:10;16.57;;;3.60;;
56399;SDS011;42298;53.638;9.876;2023-02-18T09:09:35;10.83;;;3.17;;
56399;SDS011;42298;53.638;9.876;2023-02-18T09:12:01;14.13;;;3.73;;
56399;SDS011;42298;53.638;9.876;2023-02-18T09:14:26;13.53;;;4.00;;
56399;SDS011;42298;53.638;9.876;2023-02-18T09:16:52;13.80;;;4.07;;
56399;SDS011;42298;53.638;9.876;2023-02-18T09:19:18;17.63;;;4.83;;
56399;SDS011;42298;53.638;9.876;2023-02-18T09:21:43;13.23;;;4.30;;
56399;SDS011;42298;53.638;9.876;2023-02-18T09:24:08;13.53;;;4.00;;
56399;SDS011;42298;53.638;9.876;2023-02-18T09:26:34;21.83;;;10.53;;
56399;SDS011;42298;53.638;9.876;2023-02-18T09:29:00;25.60;;;12.80;;
56399;SDS011;42298;53.638;9.876;2023-02-18T09:31:26;16.33;;;7.80;;
56399;SDS011;42298;53.638;9.876;2023-02-18T09:33:53;13.87;;;5.67;;
56399;SDS011;42298;53.638;9.876;2023-02-18T09:36:20;16.70;;;6.10;;
56399;SDS011;42298;53.638;9.876;2023-02-18T09:38:46;15.10;;;5.17;;
56399;SDS011;42298;53.638;9.876;2023-02-18T09:41:26;9.87;;;4.53;;
56399;SDS011;42298;53.638;9.876;2023-02-18T09:44:10;13.97;;;5.70;;
56399;SDS011;42298;53.638;9.876;2023-02-18T09:49:28;12.17;;;4.10;;
56399;SDS011;42298;53.638;9.876;2023-02-18T09:52:05;12.53;;;4.60;;
56399;SDS011;42298;53.638;9.876;2023-02-18T09:54:36;11.73;;;4.20;;
56399;SDS011;42298;53.638;9.876;2023-02-18T09:57:02;9.17;;;5.00;;
56399;SDS011;42298;53.638;9.876;2023-02-18T09:59:28;10.37;;;4.20;;
56399;SDS011;42298;53.638;9.876;2023-02-18T10:01:54;11.83;;;4.50;;
56399;SDS011;42298;53.638;9.876;2023-02-18T10:04:22;9.50;;;4.40;;
56399;SDS011;42298;53.638;9.876;2023-02-18T10:06:54;9.97;;;4.60;;
56399;SDS011;42298;53.638;9.876;2023-02-18T10:09:22;8.63;;;4.23;;
56399;SDS011;42298;53.638;9.876;2023-02-18T10:14:53;9.20;;;4.00;;
56399;SDS011;42298;53.638;9.876;2023-02-18T10:17:20;7.63;;;3.53;;
56399;SDS011;42298;53.638;9.876;2023-02-18T10:19:49;8.50;;;3.60;;
56399;SDS011;42298;53.638;9.876;2023-02-18T10:22:16;7.97;;;3.80;;
56399;SDS011;42298;53.638;9.876;2023-02-18T10:24:47;7.77;;;4.00;;
56399;SDS011;42298;53.638;9.876;2023-02-18T10:27:32;7.87;;;3.30;;
56399;SDS011;42298;53.638;9.876;2023-02-18T10:30:22;5.47;;;3.10;;
56399;SDS011;42298;53.638;9.876;2023-02-18T10:32:55;6.13;;;3.40;;
56399;SDS011;42298;53.638;9.876;2023-02-18T10:35:37;5.30;;;2.90;;
56399;SDS011;42298;53.638;9.876;2023-02-18T10:43:44;7.80;;;4.10;;
56399;SDS011;42298;53.638;9.876;2023-02-18T10:52:04;7.10;;;4.37;;
56399;SDS011;42298;53.638;9.876;2023-02-18T10:54:48;8.60;;;4.50;;
56399;SDS011;42298;53.638;9.876;2023-02-18T10:57:17;10.10;;;4.70;;
56399;SDS011;42298;53.638;9.876;2023-02-18T10:59:52;8.83;;;5.00;;
56399;SDS011;42298;53.638;9.876;2023-02-18T11:02:22;6.70;;;4.23;;
56399;SDS011;42298;53.638;9.876;2023-02-18T11:04:49;7.43;;;4.27;;
56399;SDS011;42298;53.638;9.876;2023-02-18T11:07:20;8.13;;;4.77;;
56399;SDS011;42298;53.638;9.876;2023-02-18T11:09:48;8.20;;;4.97;;
56399;SDS011;42298;53.638;9.876;2023-02-18T11:12:20;7.37;;;3.90;;
56399;SDS011;42298;53.638;9.876;2023-02-18T11:15:02;9.10;;;4.67;;
56399;SDS011;42298;53.638;9.876;2023-02-18T11:17:29;6.90;;;3.93;;
56399;SDS011;42298;53.638;9.876;2023-02-18T11:19:57;7.47;;;4.53;;
56399;SDS011;42298;53.638;9.876;2023-02-18T11:22:30;7.03;;;4.30;;
56399;SDS011;42298;53.638;9.876;2023-02-18T11:25:00;5.37;;;3.60;;
56399;SDS011;42298;53.638;9.876;2023-02-18T11:27:43;8.60;;;5.27;;
56399;SDS011;42298;53.638;9.876;2023-02-18T11:30:17;7.83;;;4.60;;
56399;SDS011;42298;53.638;9.876;2023-02-18T11:32:46;7.13;;;4.47;;
56399;SDS011;42298;53.638;9.876;2023-02-18T11:35:21;9.47;;;5.30;;
56399;SDS011;42298;53.638;9.876;2023-02-18T11:37:49;6.80;;;4.57;;
56399;SDS011;42298;53.638;9.876;2023-02-18T11:40:27;7.60;;;4.90;;
56399;SDS011;42298;53.638;9.876;2023-02-18T11:43:05;6.65;;;4.05;;
56399;SDS011;42298;53.638;9.876;2023-02-18T11:45:39;7.53;;;4.57;;
56399;SDS011;42298;53.638;9.876;2023-02-18T11:48:14;7.88;;;4.28;;
56399;SDS011;42298;53.638;9.876;2023-02-18T11:50:41;7.72;;;3.83;;
56399;SDS011;42298;53.638;9.876;2023-02-18T11:53:24;7.53;;;4.45;;
56399;SDS011;42298;53.638;9.876;2023-02-18T11:56:15;6.77;;;3.20;;
56399;SDS011;42298;53.638;9.876;2023-02-18T11:58:43;6.33;;;3.17;;
56399;SDS011;42298;53.638;9.876;2023-02-18T12:01:45;3.97;;;2.10;;
56399;SDS011;42298;53.638;9.876;2023-02-18T12:06:45;1.67;;;1.03;;
56399;SDS011;42298;53.638;9.876;2023-02-18T12:09:19;2.63;;;1.37;;
56399;SDS011;42298;53.638;9.876;2023-02-18T12:12:04;1.57;;;1.20;;
56399;SDS011;42298;53.638;9.876;2023-02-18T12:14:37;2.80;;;1.13;;
56399;SDS011;42298;53.638;9.876;2023-02-18T12:19:37;5.47;;;1.40;;
56399;SDS011;42298;53.638;9.876;2023-02-18T12:22:32;5.10;;;1.80;;
56399;SDS011;42298;53.638;9.876;2023-02-18T12:27:43;8.82;;;2.20;;
56399;SDS011;42298;53.638;9.876;2023-02-18T12:32:52;10.02;;;2.35;;
56399;SDS011;42298;53.638;9.876;2023-02-18T12:35:28;9.97;;;2.67;;
56399;SDS011;42298;53.638;9.876;2023-02-18T12:38:10;14.70;;;3.10;;
56399;SDS011;42298;53.638;9.876;2023-02-18T12:44:00;13.93;;;3.17;;
56399;SDS011;42298;53.638;9.876;2023-02-18T12:46:50;16.75;;;3.97;;
56399;SDS011;42298;53.638;9.876;2023-02-18T12:55:16;16.30;;;4.20;;
56399;SDS011;42298;53.638;9.876;2023-02-18T13:01:06;14.57;;;3.80;;
56399;SDS011;42298;53.638;9.876;2023-02-18T13:03:53;12.37;;;3.33;;
56399;SDS011;42298;53.638;9.876;2023-02-18T13:09:06;14.20;;;3.70;;
56399;SDS011;42298;53.638;9.876;2023-02-18T13:11:56;15.33;;;3.87;;
56399;SDS011;42298;53.638;9.876;2023-02-18T13:14:30;18.27;;;3.53;;
56399;SDS011;42298;53.638;9.876;2023-02-18T13:17:02;22.83;;;5.38;;
56399;SDS011;42298;53.638;9.876;2023-02-18T13:22:07;15.77;;;4.07;;
56399;SDS011;42298;53.638;9.876;2023-02-18T13:24:37;19.80;;;4.60;;
56399;SDS011;42298;53.638;9.876;2023-02-18T13:27:21;21.93;;;5.00;;
56399;SDS011;42298;53.638;9.876;2023-02-18T13:30:03;14.35;;;4.32;;
56399;SDS011;42298;53.638;9.876;2023-02-18T13:40:52;18.57;;;4.60;;
56399;SDS011;42298;53.638;9.876;2023-02-18T13:43:27;16.00;;;5.10;;
56399;SDS011;42298;53.638;9.876;2023-02-18T13:48:42;18.40;;;4.43;;
56399;SDS011;42298;53.638;9.876;2023-02-18T13:54:02;17.60;;;4.30;;
56399;SDS011;42298;53.638;9.876;2023-02-18T13:56:34;13.77;;;3.88;;
56399;SDS011;42298;53.638;9.876;2023-02-18T13:59:10;13.60;;;3.90;;
56399;SDS011;42298;53.638;9.876;2023-02-18T14:01:43;13.80;;;3.75;;
56399;SDS011;42298;53.638;9.876;2023-02-18T14:12:40;5.27;;;2.53;;
56399;SDS011;42298;53.638;9.876;2023-02-18T14:17:42;2.43;;;2.20;;
56399;SDS011;42298;53.638;9.876;2023-02-18T14:22:50;4.67;;;2.90;;
56399;SDS011;42298;53.638;9.876;2023-02-18T14:27:45;3.57;;;2.50;;
56399;SDS011;42298;53.638;9.876;2023-02-18T14:30:34;3.10;;;2.40;;
56399;SDS011;42298;53.638;9.876;2023-02-18T14:33:04;3.07;;;2.23;;
56399;SDS011;42298;53.638;9.876;2023-02-18T14:35:31;4.37;;;2.47;;
56399;SDS011;42298;53.638;9.876;2023-02-18T14:38:15;3.63;;;2.33;;
56399;SDS011;42298;53.638;9.876;2023-02-18T14:40:50;2.93;;;2.23;;
56399;SDS011;42298;53.638;9.876;2023-02-18T14:43:38;6.27;;;3.30;;
56399;SDS011;42298;53.638;9.876;2023-02-18T14:51:21;3.60;;;1.70;;
56399;SDS011;42298;53.638;9.876;2023-02-18T14:53:50;1.50;;;1.40;;
56399;SDS011;42298;53.638;9.876;2023-02-18T14:56:17;1.27;;;1.27;;
56399;SDS011;42298;53.638;9.876;2023-02-18T14:58:52;2.27;;;1.20;;
56399;SDS011;42298;53.638;9.876;2023-02-18T15:01:26;2.03;;;1.40;;
56399;SDS011;42298;53.638;9.876;2023-02-18T15:03:56;1.50;;;1.40;;
56399;SDS011;42298;53.638;9.876;2023-02-18T15:06:22;1.93;;;1.47;;
56399;SDS011;42298;53.638;9.876;2023-02-18T15:09:06;1.40;;;1.20;;
56399;SDS011;42298;53.638;9.876;2023-02-18T15:12:02;1.60;;;1.40;;
56399;SDS011;42298;53.638;9.876;2023-02-18T15:14:31;3.17;;;1.73;;
56399;SDS011;42298;53.638;9.876;2023-02-18T15:16:59;2.43;;;1.50;;
56399;SDS011;42298;53.638;9.876;2023-02-18T15:19:27;3.43;;;1.50;;
56399;SDS011;42298;53.638;9.876;2023-02-18T15:21:58;1.77;;;1.40;;
56399;SDS011;42298;53.638;9.876;2023-02-18T15:24:41;1.50;;;1.40;;
56399;SDS011;42298;53.638;9.876;2023-02-18T15:27:11;1.50;;;1.40;;
56399;SDS011;42298;53.638;9.876;2023-02-18T15:29:39;3.53;;;1.67;;
56399;SDS011;42298;53.638;9.876;2023-02-18T15:32:24;2.73;;;1.70;;
56399;SDS011;42298;53.638;9.876;2023-02-18T15:34:55;4.47;;;1.90;;
56399;SDS011;42298;53.638;9.876;2023-02-18T15:37:25;3.13;;;2.47;;
56399;SDS011;42298;53.638;9.876;2023-02-18T15:39:50;3.00;;;2.50;;
56399;SDS011;42298;53.638;9.876;2023-02-18T15:42:25;2.90;;;2.47;;
56399;SDS011;42298;53.638;9.876;2023-02-18T15:44:55;3.50;;;2.30;;
56399;SDS011;42298;53.638;9.876;2023-02-18T15:47:22;2.93;;;2.30;;
56399;SDS011;42298;53.638;9.876;2023-02-18T15:49:49;4.37;;;2.73;;
56399;SDS011;42298;53.638;9.876;2023-02-18T15:52:24;4.27;;;2.50;;
56399;SDS011;42298;53.638;9.876;2023-02-18T15:54:53;2.43;;;1.93;;
56399;SDS011;42298;53.638;9.876;2023-02-18T15:57:22;2.00;;;1.80;;
56399;SDS011;42298;53.638;9.876;2023-02-18T15:59:53;1.60;;;1.50;;
56399;SDS011;42298;53.638;9.876;2023-02-18T16:02:22;2.87;;;1.70;;
56399;SDS011;42298;53.638;9.876;2023-02-18T16:04:53;2.97;;;1.70;;
56399;SDS011;42298;53.638;9.876;2023-02-18T16:07:23;1.70;;;1.57;;
56399;SDS011;42298;53.638;9.876;2023-02-18T16:09:49;1.87;;;1.50;;
56399;SDS011;42298;53.638;9.876;2023-02-18T16:12:21;2.33;;;1.77;;
56399;SDS011;42298;53.638;9.876;2023-02-18T16:14:54;2.80;;;1.67;;
56399;SDS011;42298;53.638;9.876;2023-02-18T16:17:23;1.40;;;1.30;;
56399;SDS011;42298;53.638;9.876;2023-02-18T16:19:54;2.97;;;1.63;;
56399;SDS011;42298;53.638;9.876;2023-02-18T16:27:53;3.10;;;1.70;;
56399;SDS011;42298;53.638;9.876;2023-02-18T16:30:30;2.20;;;1.60;;
56399;SDS011;42298;53.638;9.876;2023-02-18T16:32:57;2.03;;;1.40;;
56399;SDS011;42298;53.638;9.876;2023-02-18T16:35:23;1.87;;;1.77;;
56399;SDS011;42298;53.638;9.876;2023-02-18T16:37:51;1.83;;;1.70;;
56399;SDS011;42298;53.638;9.876;2023-02-18T16:40:21;2.97;;;2.10;;
56399;SDS011;42298;53.638;9.876;2023-02-18T16:43:11;4.47;;;2.20;;
56399;SDS011;42298;53.638;9.876;2023-02-18T16:45:39;4.07;;;2.30;;
56399;SDS011;42298;53.638;9.876;2023-02-18T16:48:08;4.83;;;2.43;;
56399;SDS011;42298;53.638;9.876;2023-02-18T16:50:56;3.33;;;2.47;;
56399;SDS011;42298;53.638;9.876;2023-02-18T16:53:24;6.13;;;3.07;;